Mako, Hungary
Current Conditions -  °F | °C
As of 11:45 AM on Monday 26 Jan 2015 (Local Time) from LHUD Reporting Station
Broken Clouds Broken Clouds  
Wind Chill: 31°   Ceiling: 8300
Heat Index: 37°   Visibility: 4mi
Dew Point: 30°   Wind: 9mph
Humidity: 75%   Direction: 360°N
Pressure: 30.24"   Gusts: NA
Location:  46.22°N, 20.47°E
Report Text: LHUD 260945Z 36008KT 6000 FEW011 SCT025 BKN083 03/M01 Q1024
Loading
Personal Weather Stations






























Interactive Weather Map New forecast layout! Learn more

10-Day Weather Forecast

Advertisements
Track Severe Weather on mobile